Time;durP1;ratioP1;P1;durP2;ratioP2;P2;SDS_P1;SDS_P2;PMS_P1;PMS_P2;Temp;Humidity;BMP_temperature;BMP_pressure;BME280_temperature;BME280_humidity;BME280_pressure;Samples;Min_cycle;Max_cycle;Signal;HPM_P1;HPM_P2
2023/11/18 00:00:17;;;;;;;4.60;4.20;;;12.30;64.90;;;;;;5043819;28;20240;-51
2023/11/18 00:02:43;;;;;;;4.93;4.47;;;12.30;65.00;;;;;;5043999;28;20860;-53
2023/11/18 00:05:09;;;;;;;4.57;4.17;;;12.30;64.70;;;;;;5045595;28;20185;-52
2023/11/18 00:07:35;;;;;;;5.23;4.27;;;12.30;64.50;;;;;;5036049;28;20442;-51
2023/11/18 00:10:00;;;;;;;4.70;4.20;;;12.30;64.30;;;;;;5038365;28;20501;-55
2023/11/18 00:12:26;;;;;;;7.20;4.60;;;12.30;64.40;;;;;;5046024;28;20191;-49
2023/11/18 00:14:51;;;;;;;5.30;4.57;;;12.30;64.30;;;;;;5043332;28;20840;-53
2023/11/18 00:17:17;;;;;;;5.10;4.23;;;12.30;64.30;;;;;;5041980;28;20208;-49
2023/11/18 00:19:44;;;;;;;5.90;4.80;;;12.30;64.30;;;;;;5037392;28;20301;-50
2023/11/18 00:22:11;;;;;;;5.43;4.93;;;12.30;64.30;;;;;;5042056;28;20668;-52
2023/11/18 00:24:36;;;;;;;5.67;4.77;;;12.30;64.30;;;;;;5037447;28;20830;-51
2023/11/18 00:27:05;;;;;;;5.00;4.50;;;12.30;64.10;;;;;;5039656;28;20442;-50
2023/11/18 00:29:34;;;;;;;4.70;4.30;;;12.30;64.10;;;;;;5043308;28;20901;-52
2023/11/18 00:32:01;;;;;;;6.07;4.70;;;12.30;64.50;;;;;;5044995;28;20477;-49
2023/11/18 00:34:26;;;;;;;4.57;4.13;;;12.30;65.10;;;;;;5039650;28;20454;-51
2023/11/18 00:36:52;;;;;;;4.80;4.30;;;12.30;64.50;;;;;;5037088;28;20968;-51
2023/11/18 00:39:18;;;;;;;5.30;4.80;;;12.30;64.50;;;;;;5039075;28;20200;-54
2023/11/18 00:41:43;;;;;;;4.67;4.27;;;12.30;64.60;;;;;;5046192;28;20682;-50
2023/11/18 00:44:09;;;;;;;5.60;5.00;;;12.30;64.70;;;;;;5040725;28;20580;-55
2023/11/18 00:46:38;;;;;;;5.07;4.40;;;12.30;64.70;;;;;;5045984;28;20700;-54
2023/11/18 00:49:04;;;;;;;5.70;4.30;;;12.30;64.80;;;;;;5043952;28;20962;-49
2023/11/18 00:51:30;;;;;;;7.00;5.00;;;12.30;65.00;;;;;;5044178;28;20506;-49
2023/11/18 00:53:56;;;;;;;5.30;4.27;;;12.30;64.90;;;;;;5042210;28;20537;-54
2023/11/18 00:56:21;;;;;;;5.07;3.90;;;12.30;65.00;;;;;;5041508;28;20276;-50
2023/11/18 00:58:48;;;;;;;5.53;4.23;;;12.30;64.60;;;;;;5042884;28;20228;-49
2023/11/18 01:01:13;;;;;;;4.77;4.20;;;12.30;64.30;;;;;;5042549;28;20224;-51
2023/11/18 01:03:39;;;;;;;6.63;4.43;;;12.40;64.20;;;;;;5045456;28;20438;-55
2023/11/18 01:06:06;;;;;;;4.77;4.37;;;12.40;64.00;;;;;;5044748;28;20211;-50
2023/11/18 01:08:32;;;;;;;5.37;4.87;;;12.40;64.00;;;;;;5039204;28;20209;-49
2023/11/18 01:10:57;;;;;;;5.60;5.10;;;12.40;64.10;;;;;;5045395;28;20526;-50
2023/11/18 01:13:23;;;;;;;4.83;4.43;;;12.40;64.00;;;;;;5041842;28;20432;-49
2023/11/18 01:15:49;;;;;;;5.30;4.20;;;12.40;64.10;;;;;;5037825;28;20269;-53
2023/11/18 01:18:14;;;;;;;4.37;3.97;;;12.40;64.30;;;;;;5042828;28;20188;-53
2023/11/18 01:20:40;;;;;;;5.10;4.70;;;12.40;64.50;;;;;;5042709;28;20475;-54
2023/11/18 01:23:06;;;;;;;4.80;4.40;;;12.30;64.60;;;;;;5042035;28;20181;-51
2023/11/18 01:25:31;;;;;;;5.80;4.90;;;12.30;64.70;;;;;;5036539;28;20254;-49
2023/11/18 01:27:57;;;;;;;4.57;4.17;;;12.40;64.80;;;;;;5039574;28;20196;-49
2023/11/18 01:30:23;;;;;;;4.17;3.77;;;12.40;64.80;;;;;;5045104;28;20215;-53
2023/11/18 01:32:49;;;;;;;4.40;3.50;;;12.30;64.40;;;;;;5046786;28;20188;-49
2023/11/18 01:35:15;;;;;;;3.67;3.37;;;12.30;64.30;;;;;;5044180;28;20926;-49
2023/11/18 01:37:40;;;;;;;3.80;3.50;;;12.30;64.00;;;;;;5044876;28;20187;-54
2023/11/18 01:40:15;;;;;;;5.67;3.70;;;12.40;63.80;;;;;;5043908;28;20593;-48
2023/11/18 01:42:43;;;;;;;3.83;3.53;;;12.40;63.40;;;;;;5043520;28;20554;-49
2023/11/18 01:45:11;;;;;;;3.47;3.17;;;12.40;63.10;;;;;;5041708;28;20435;-54
2023/11/18 01:47:37;;;;;;;4.53;4.13;;;12.50;63.20;;;;;;5045583;28;20434;-54
2023/11/18 01:50:06;;;;;;;4.33;3.50;;;12.50;62.90;;;;;;5044352;28;20466;-55
2023/11/18 01:52:31;;;;;;;5.03;4.57;;;12.50;62.90;;;;;;5038268;28;20189;-49
2023/11/18 01:54:59;;;;;;;5.60;5.10;;;12.50;63.20;;;;;;5042265;28;20474;-49
2023/11/18 01:57:26;;;;;;;6.00;5.40;;;12.50;63.30;;;;;;5050461;28;20195;-53
2023/11/18 01:59:53;;;;;;;7.20;6.50;;;12.50;63.50;;;;;;5040185;28;20561;-49
2023/11/18 02:02:20;;;;;;;6.40;5.77;;;12.40;64.50;;;;;;5041451;28;20446;-54
2023/11/18 02:04:47;;;;;;;7.50;6.50;;;12.30;63.50;;;;;;5035127;28;20950;-49
2023/11/18 02:07:14;;;;;;;6.67;6.07;;;12.20;63.90;;;;;;5046051;28;20533;-53
2023/11/18 02:09:41;;;;;;;5.43;4.90;;;12.30;64.20;;;;;;5041071;28;20450;-49
2023/11/18 02:12:20;;;;;;;6.60;5.93;;;12.20;64.80;;;;;;5038818;28;20466;-50
2023/11/18 02:14:48;;;;;;;5.30;4.47;;;12.20;64.80;;;;;;5043876;28;20470;-49
2023/11/18 02:17:17;;;;;;;5.97;5.37;;;12.30;64.60;;;;;;5034551;28;20497;-52
2023/11/18 02:19:43;;;;;;;4.80;4.40;;;12.30;64.50;;;;;;5040548;28;20518;-50
2023/11/18 02:22:11;;;;;;;5.10;4.70;;;12.30;64.40;;;;;;5040280;28;20470;-52
2023/11/18 02:24:37;;;;;;;4.97;4.57;;;12.40;64.30;;;;;;5044269;28;20930;-49
2023/11/18 02:27:05;;;;;;;6.07;5.47;;;12.40;64.20;;;;;;5037410;28;20957;-53
2023/11/18 02:29:37;;;;;;;6.07;4.60;;;12.40;64.30;;;;;;5039920;28;20482;-55
2023/11/18 02:32:16;;;;;;;5.60;4.20;;;12.40;64.30;;;;;;5040757;28;20446;-51
2023/11/18 02:35:05;;;;;;;4.77;4.37;;;12.40;64.20;;;;;;5040405;28;20439;-54
2023/11/18 02:37:32;;;;;;;5.40;4.90;;;12.40;64.30;;;;;;5040821;28;21196;-52
2023/11/18 02:40:08;;;;;;;5.10;4.60;;;12.40;64.40;;;;;;5041971;28;20486;-49
2023/11/18 02:42:37;;;;;;;5.30;4.90;;;12.40;64.40;;;;;;5046246;28;20496;-51
2023/11/18 02:45:06;;;;;;;6.10;4.60;;;12.40;64.50;;;;;;5042769;28;20470;-52
2023/11/18 02:47:32;;;;;;;4.77;4.37;;;12.40;64.80;;;;;;5038254;28;20530;-50
2023/11/18 02:50:05;;;;;;;4.70;4.30;;;12.40;64.90;;;;;;5041426;28;20554;-52
2023/11/18 02:52:31;;;;;;;4.87;4.40;;;12.40;64.80;;;;;;5038418;28;20687;-48
2023/11/18 02:54:56;;;;;;;4.80;4.40;;;12.40;64.70;;;;;;5037959;28;20493;-49
2023/11/18 02:57:22;;;;;;;5.70;5.20;;;12.40;64.70;;;;;;5035658;28;20460;-51
2023/11/18 02:59:47;;;;;;;5.87;5.37;;;12.30;64.70;;;;;;5040138;28;20224;-56
2023/11/18 03:02:15;;;;;;;5.73;5.23;;;12.30;64.90;;;;;;5041047;28;20185;-49
2023/11/18 03:04:43;;;;;;;5.33;4.83;;;12.20;65.20;;;;;;5041192;28;20189;-49
2023/11/18 03:07:09;;;;;;;5.13;4.63;;;12.30;65.40;;;;;;5035252;28;20458;-54
2023/11/18 03:09:36;;;;;;;5.23;4.73;;;12.30;65.40;;;;;;5039835;28;20509;-49
2023/11/18 03:12:02;;;;;;;5.07;4.20;;;12.30;65.30;;;;;;5038406;28;20200;-52
2023/11/18 03:14:28;;;;;;;4.93;4.53;;;12.30;65.30;;;;;;5038457;28;20477;-55
2023/11/18 03:16:55;;;;;;;4.70;4.30;;;12.30;65.00;;;;;;5040760;28;20949;-53
2023/11/18 03:19:21;;;;;;;6.63;4.70;;;12.30;64.90;;;;;;5042870;28;20459;-49
2023/11/18 03:21:53;;;;;;;6.10;4.60;;;12.30;64.90;;;;;;5035005;28;20473;-51
2023/11/18 03:24:18;;;;;;;4.57;4.17;;;12.30;64.80;;;;;;5041812;28;20200;-51
2023/11/18 03:26:44;;;;;;;5.47;4.90;;;12.30;64.70;;;;;;5040123;28;20455;-52
2023/11/18 03:29:11;;;;;;;5.20;4.70;;;12.30;64.60;;;;;;5037879;28;20699;-53
2023/11/18 03:31:36;;;;;;;5.53;5.03;;;12.20;64.50;;;;;;5038914;28;20239;-51
2023/11/18 03:34:02;;;;;;;6.10;4.90;;;12.20;64.60;;;;;;5042585;28;20946;-51
2023/11/18 03:36:28;;;;;;;4.87;4.47;;;12.20;64.70;;;;;;5041527;28;20192;-54
2023/11/18 03:38:53;;;;;;;5.93;5.50;;;12.20;64.80;;;;;;5046833;28;20255;-51
2023/11/18 03:41:19;;;;;;;6.47;5.97;;;12.20;64.90;;;;;;5039482;28;20255;-52
2023/11/18 03:43:47;;;;;;;5.37;4.90;;;12.20;64.80;;;;;;5043326;28;20537;-49
2023/11/18 03:46:13;;;;;;;6.10;5.60;;;12.20;64.70;;;;;;5034580;28;20566;-49
2023/11/18 03:48:38;;;;;;;5.20;4.70;;;12.20;64.60;;;;;;5038930;28;20447;-53
2023/11/18 03:51:04;;;;;;;5.87;5.27;;;12.10;64.70;;;;;;5036902;28;20176;-51
2023/11/18 03:53:30;;;;;;;6.30;5.73;;;12.10;64.90;;;;;;5043235;28;20659;-52
2023/11/18 03:55:56;;;;;;;5.30;4.90;;;12.00;65.20;;;;;;5041852;28;20245;-49
2023/11/18 03:58:21;;;;;;;5.10;4.70;;;12.00;65.10;;;;;;5041435;28;20200;-49
2023/11/18 04:00:47;;;;;;;4.60;4.20;;;12.00;65.20;;;;;;5035863;28;20244;-51
2023/11/18 04:03:12;;;;;;;4.93;4.53;;;12.00;65.20;;;;;;5045192;28;20256;-52
2023/11/18 04:05:39;;;;;;;4.80;4.40;;;12.00;65.10;;;;;;5043358;28;20180;-53
2023/11/18 04:08:04;;;;;;;5.33;4.83;;;12.00;65.20;;;;;;5046449;28;20667;-54
2023/11/18 04:10:30;;;;;;;6.53;5.90;;;11.90;65.50;;;;;;5039222;28;20436;-52
2023/11/18 04:12:56;;;;;;;5.37;4.87;;;12.00;65.70;;;;;;5046520;28;20196;-49
2023/11/18 04:15:22;;;;;;;5.60;5.10;;;12.00;65.60;;;;;;5040828;28;20188;-48
2023/11/18 04:17:47;;;;;;;4.43;4.03;;;12.00;65.60;;;;;;5043673;28;20446;-50
2023/11/18 04:20:15;;;;;;;5.07;4.57;;;12.00;66.10;;;;;;5041565;28;20299;-50
2023/11/18 04:22:41;;;;;;;5.50;5.00;;;12.00;65.30;;;;;;5040849;28;20193;-53
2023/11/18 04:25:10;;;;;;;4.73;4.33;;;12.00;65.80;;;;;;5043770;28;20935;-50
2023/11/18 04:27:35;;;;;;;4.70;4.27;;;12.10;65.00;;;;;;5046402;28;20660;-51
2023/11/18 04:30:01;;;;;;;3.70;3.40;;;12.00;64.90;;;;;;5044837;28;20470;-52
2023/11/18 04:32:27;;;;;;;4.50;4.07;;;11.90;65.30;;;;;;5042318;28;20657;-51
2023/11/18 04:34:52;;;;;;;5.83;4.40;;;11.90;65.30;;;;;;5042629;28;20450;-52
2023/11/18 04:37:18;;;;;;;4.93;3.50;;;12.00;65.30;;;;;;5044585;28;20183;-49
2023/11/18 04:39:43;;;;;;;4.90;4.30;;;12.00;64.90;;;;;;5046422;28;20205;-52
2023/11/18 04:42:09;;;;;;;4.60;4.20;;;12.00;64.90;;;;;;5041812;28;20302;-54
2023/11/18 04:44:35;;;;;;;3.67;3.37;;;12.00;64.70;;;;;;5049677;28;20188;-52
2023/11/18 04:47:01;;;;;;;3.57;3.27;;;12.00;64.70;;;;;;5036317;28;20254;-49
2023/11/18 04:49:27;;;;;;;3.60;3.30;;;11.90;64.40;;;;;;5046244;28;20234;-51
2023/11/18 04:51:52;;;;;;;4.17;3.23;;;11.80;64.70;;;;;;5043549;28;20454;-51
2023/11/18 04:54:19;;;;;;;5.00;4.50;;;11.80;64.70;;;;;;5044566;28;20184;-52
2023/11/18 04:56:45;;;;;;;7.40;5.40;;;11.80;64.40;;;;;;5038826;28;20536;-53
2023/11/18 04:59:10;;;;;;;5.27;4.77;;;11.70;64.20;;;;;;5041169;28;20516;-56
2023/11/18 05:01:37;;;;;;;5.17;4.77;;;11.70;64.30;;;;;;5039609;28;20261;-50
2023/11/18 05:04:03;;;;;;;4.23;3.70;;;11.70;63.90;;;;;;5046302;28;20195;-53
2023/11/18 05:06:29;;;;;;;4.10;3.70;;;11.60;64.40;;;;;;5043810;28;21037;-52
2023/11/18 05:08:54;;;;;;;3.70;3.40;;;11.60;64.60;;;;;;5037791;28;20466;-49
2023/11/18 05:11:20;;;;;;;5.17;4.77;;;11.60;64.20;;;;;;5044034;28;20208;-50
2023/11/18 05:13:46;;;;;;;4.03;3.63;;;11.60;64.40;;;;;;5038312;28;20192;-49
2023/11/18 05:16:11;;;;;;;3.60;3.40;;;11.60;64.10;;;;;;5044776;28;20201;-52
2023/11/18 05:18:38;;;;;;;4.00;3.57;;;11.50;64.00;;;;;;5047763;28;20258;-49
2023/11/18 05:21:05;;;;;;;4.83;3.97;;;11.40;64.50;;;;;;5037396;28;20213;-52
2023/11/18 05:23:31;;;;;;;8.63;5.67;;;11.40;64.50;;;;;;5044459;28;20467;-52
2023/11/18 05:25:58;;;;;;;5.63;4.80;;;11.40;64.60;;;;;;5044131;28;20442;-49
2023/11/18 05:28:24;;;;;;;5.10;4.60;;;11.40;64.40;;;;;;5042854;28;20456;-52
2023/11/18 05:30:50;;;;;;;4.60;4.20;;;11.50;64.30;;;;;;5038399;28;20434;-52
2023/11/18 05:33:17;;;;;;;3.70;3.40;;;11.50;64.00;;;;;;5046817;28;20990;-51
2023/11/18 05:35:49;;;;;;;3.67;3.20;;;11.60;63.60;;;;;;5042178;28;20775;-50
2023/11/18 05:38:21;;;;;;;4.10;3.77;;;11.70;63.20;;;;;;5045552;28;20466;-51
2023/11/18 05:40:55;;;;;;;3.53;3.30;;;11.60;62.80;;;;;;5043984;28;20485;-52
2023/11/18 05:43:40;;;;;;;4.80;3.90;;;11.70;62.70;;;;;;5047758;28;20442;-51
2023/11/18 05:46:14;;;;;;;6.40;3.90;;;11.60;62.30;;;;;;5042189;28;20463;-52
2023/11/18 05:48:44;;;;;;;3.47;3.17;;;11.60;62.40;;;;;;5040416;28;20435;-52
2023/11/18 05:51:10;;;;;;;3.67;3.37;;;11.50;62.50;;;;;;5040174;28;20442;-54
2023/11/18 05:53:45;;;;;;;4.10;3.77;;;11.50;62.50;;;;;;5045343;28;20416;-53
2023/11/18 05:56:11;;;;;;;3.73;3.43;;;11.50;62.60;;;;;;5040373;28;20446;-49
2023/11/18 05:58:38;;;;;;;4.43;3.40;;;11.40;62.50;;;;;;5040829;28;20498;-49
2023/11/18 06:01:05;;;;;;;3.00;2.80;;;11.40;62.60;;;;;;5045518;28;20844;-52
2023/11/18 06:03:30;;;;;;;5.30;3.40;;;11.40;62.70;;;;;;5050831;28;20451;-49
2023/11/18 06:05:56;;;;;;;3.23;3.03;;;11.40;62.80;;;;;;5041234;28;20513;-51
2023/11/18 06:08:22;;;;;;;2.87;2.67;;;11.40;63.00;;;;;;5045876;28;20192;-50
2023/11/18 06:10:48;;;;;;;2.53;2.33;;;11.40;62.80;;;;;;5037094;28;20224;-53
2023/11/18 06:13:16;;;;;;;3.10;2.80;;;11.40;62.60;;;;;;5040381;28;20435;-52
2023/11/18 06:15:43;;;;;;;2.90;2.70;;;11.40;62.30;;;;;;5037000;28;20435;-55
2023/11/18 06:18:08;;;;;;;3.30;3.00;;;11.30;62.20;;;;;;5037607;28;20498;-51
2023/11/18 06:20:38;;;;;;;4.33;3.60;;;11.20;62.60;;;;;;5040834;28;21282;-56
2023/11/18 06:23:03;;;;;;;3.47;3.17;;;11.10;62.80;;;;;;5046230;28;20189;-51
2023/11/18 06:25:31;;;;;;;4.03;3.63;;;11.00;63.00;;;;;;5047952;28;20585;-49
2023/11/18 06:27:58;;;;;;;3.57;3.27;;;11.00;63.50;;;;;;5043516;28;20609;-50
2023/11/18 06:30:23;;;;;;;4.87;4.47;;;10.90;63.50;;;;;;5037134;28;20462;-50
2023/11/18 06:32:49;;;;;;;3.97;3.60;;;11.00;64.70;;;;;;5040549;28;20439;-52
2023/11/18 06:35:14;;;;;;;3.50;3.20;;;11.20;64.90;;;;;;5040694;28;20181;-53
2023/11/18 06:37:40;;;;;;;4.83;4.07;;;11.40;64.70;;;;;;5039712;28;20655;-53
2023/11/18 06:40:16;;;;;;;4.43;4.03;;;11.70;63.30;;;;;;5037501;28;20220;-53
2023/11/18 06:42:42;;;;;;;4.30;3.90;;;11.90;62.60;;;;;;5041024;28;20247;-50
2023/11/18 06:45:09;;;;;;;4.43;4.03;;;12.00;62.30;;;;;;5039670;28;20463;-52
2023/11/18 06:47:36;;;;;;;4.10;3.60;;;12.10;62.70;;;;;;5040794;28;20959;-51
2023/11/18 06:50:02;;;;;;;5.53;3.40;;;12.10;61.80;;;;;;5041639;28;20452;-52
2023/11/18 06:52:28;;;;;;;5.13;4.10;;;12.10;61.30;;;;;;5036453;28;20442;-50
2023/11/18 06:54:54;;;;;;;9.10;4.80;;;12.10;61.30;;;;;;5040400;28;20854;-49
2023/11/18 06:57:21;;;;;;;6.93;3.87;;;12.20;60.80;;;;;;5033955;28;20188;-51
2023/11/18 06:59:47;;;;;;;4.10;3.70;;;12.20;60.60;;;;;;5041114;28;20481;-52
2023/11/18 07:02:13;;;;;;;4.13;3.77;;;12.20;60.80;;;;;;5036413;28;20881;-54
2023/11/18 07:04:39;;;;;;;4.53;3.60;;;12.20;60.00;;;;;;5038353;28;20195;-54
2023/11/18 07:07:04;;;;;;;4.90;3.30;;;12.40;60.00;;;;;;5041387;28;20814;-50
2023/11/18 07:09:35;;;;;;;4.73;3.90;;;12.70;60.00;;;;;;5036870;28;20238;-50
2023/11/18 07:12:03;;;;;;;3.93;3.17;;;13.00;58.70;;;;;;5044921;28;20246;-51
2023/11/18 07:14:29;;;;;;;3.77;3.47;;;13.00;58.00;;;;;;5038183;28;20502;-52
2023/11/18 07:16:54;;;;;;;8.47;3.93;;;13.10;57.80;;;;;;5039464;28;20438;-51
2023/11/18 07:19:20;;;;;;;4.00;3.70;;;13.10;57.70;;;;;;5032629;28;20332;-49
2023/11/18 07:21:46;;;;;;;3.67;3.37;;;13.00;57.80;;;;;;5038247;28;20222;-50
2023/11/18 07:24:12;;;;;;;3.03;2.83;;;13.20;58.50;;;;;;5039703;28;21538;-51
2023/11/18 07:26:38;;;;;;;4.93;3.27;;;13.60;58.30;;;;;;5035812;28;20534;-51
2023/11/18 07:29:03;;;;;;;2.93;2.73;;;14.10;56.80;;;;;;5045163;28;20235;-51
2023/11/18 07:31:29;;;;;;;3.10;2.80;;;14.50;55.70;;;;;;5044105;28;20275;-54
2023/11/18 07:33:56;;;;;;;2.77;2.57;;;14.90;54.90;;;;;;5035100;28;20668;-50
2023/11/18 07:36:21;;;;;;;2.70;2.50;;;15.20;54.40;;;;;;5038181;28;20275;-52
2023/11/18 07:38:47;;;;;;;2.80;2.60;;;15.40;53.70;;;;;;5043787;28;20527;-52
2023/11/18 07:41:23;;;;;;;3.80;3.40;;;15.50;53.30;;;;;;5037898;28;20220;-52
2023/11/18 07:43:54;;;;;;;3.20;2.90;;;15.60;52.90;;;;;;5046323;28;20204;-52
2023/11/18 07:46:22;;;;;;;5.00;3.30;;;15.70;52.90;;;;;;5049388;28;20430;-51
2023/11/18 07:48:49;;;;;;;5.37;4.13;;;15.70;52.80;;;;;;5042259;28;20494;-52
2023/11/18 07:51:14;;;;;;;5.53;3.93;;;15.60;52.70;;;;;;5038409;28;20434;-49
2023/11/18 07:53:40;;;;;;;3.53;3.23;;;15.60;52.80;;;;;;5046910;28;20461;-49
2023/11/18 07:56:07;;;;;;;3.97;3.67;;;15.50;53.20;;;;;;5036954;28;20181;-50
2023/11/18 07:58:37;;;;;;;4.83;4.17;;;15.40;53.20;;;;;;5047257;28;20224;-53
2023/11/18 08:01:07;;;;;;;4.50;4.10;;;15.30;53.40;;;;;;5044200;28;20479;-51
2023/11/18 08:03:33;;;;;;;3.07;2.87;;;15.10;53.40;;;;;;5048004;28;20976;-51
2023/11/18 08:05:58;;;;;;;3.23;3.00;;;14.90;54.30;;;;;;5050158;28;20427;-49
2023/11/18 08:08:24;;;;;;;3.37;3.07;;;14.60;54.50;;;;;;5047623;28;20447;-49
2023/11/18 08:10:50;;;;;;;3.43;3.10;;;14.40;55.00;;;;;;5044968;28;20649;-53
2023/11/18 08:13:16;;;;;;;3.57;3.27;;;14.30;55.10;;;;;;5046799;28;20173;-55
2023/11/18 08:15:45;;;;;;;3.30;2.97;;;14.30;55.90;;;;;;5044707;28;20505;-54
2023/11/18 08:18:10;;;;;;;3.37;3.17;;;14.10;56.10;;;;;;5044132;28;20188;-49
2023/11/18 08:20:36;;;;;;;5.43;3.23;;;14.00;56.60;;;;;;5044442;28;20478;-55
2023/11/18 08:23:04;;;;;;;3.40;3.10;;;14.00;56.80;;;;;;5046377;28;20208;-49
2023/11/18 08:25:33;;;;;;;4.57;3.50;;;14.00;57.10;;;;;;5042732;28;20447;-52
2023/11/18 08:28:00;;;;;;;3.60;3.30;;;13.90;56.70;;;;;;5046466;28;21297;-49
2023/11/18 08:30:26;;;;;;;3.73;2.53;;;13.90;56.70;;;;;;5042577;28;20454;-52
2023/11/18 08:32:52;;;;;;;3.20;3.00;;;13.70;56.50;;;;;;5049349;28;20426;-51
2023/11/18 08:35:18;;;;;;;3.87;2.90;;;13.60;57.20;;;;;;5047903;28;20431;-54
2023/11/18 08:37:45;;;;;;;3.77;3.37;;;13.70;57.40;;;;;;5044811;28;20270;-54
2023/11/18 08:40:21;;;;;;;2.33;2.13;;;13.70;57.30;;;;;;5044520;28;20627;-50
2023/11/18 08:42:53;;;;;;;4.13;3.03;;;13.80;57.30;;;;;;5036425;28;20463;-49
2023/11/18 08:45:28;;;;;;;3.10;2.80;;;13.70;57.40;;;;;;5039338;28;20451;-49
2023/11/18 08:47:55;;;;;;;3.90;3.43;;;13.60;57.80;;;;;;5039358;28;20442;-52
2023/11/18 08:50:23;;;;;;;4.67;3.77;;;13.50;58.00;;;;;;5039576;28;20466;-50
2023/11/18 08:52:52;;;;;;;5.00;3.60;;;13.50;58.60;;;;;;5040703;28;20475;-49
2023/11/18 08:55:22;;;;;;;3.80;3.50;;;13.50;59.00;;;;;;5038548;28;20467;-52
2023/11/18 08:58:03;;;;;;;5.33;3.17;;;13.50;58.70;;;;;;5041983;28;20457;-56
2023/11/18 09:00:47;;;;;;;4.73;3.30;;;13.40;57.70;;;;;;5038175;28;20486;-49
2023/11/18 09:03:17;;;;;;;3.80;3.50;;;13.50;58.20;;;;;;5049385;28;20442;-49
2023/11/18 09:05:56;;;;;;;2.90;2.70;;;13.60;57.90;;;;;;5038877;28;20431;-49
2023/11/18 09:08:26;;;;;;;6.53;3.73;;;13.60;57.90;;;;;;5045890;28;20484;-52
2023/11/18 09:10:55;;;;;;;4.07;3.23;;;13.50;58.10;;;;;;5044027;28;20466;-51
2023/11/18 09:13:29;;;;;;;3.03;2.73;;;13.30;58.40;;;;;;5043883;28;20538;-49
2023/11/18 09:16:02;;;;;;;3.90;2.90;;;13.20;58.80;;;;;;5042951;28;20972;-48
2023/11/18 09:18:30;;;;;;;3.83;2.47;;;12.90;58.80;;;;;;5043266;28;20831;-50
2023/11/18 09:20:58;;;;;;;3.30;3.00;;;12.70;59.60;;;;;;5045146;28;20589;-49
2023/11/18 09:23:25;;;;;;;2.70;2.50;;;12.90;59.80;;;;;;5047465;28;20451;-53
2023/11/18 09:25:52;;;;;;;2.83;2.43;;;13.10;58.80;;;;;;5044923;28;20527;-51
2023/11/18 09:28:18;;;;;;;2.70;2.50;;;13.40;58.70;;;;;;5042218;28;20860;-51
2023/11/18 09:30:49;;;;;;;2.73;2.53;;;13.10;58.30;;;;;;5039854;28;20869;-51
2023/11/18 09:33:25;;;;;;;2.40;2.20;;;13.20;59.30;;;;;;5045702;28;20581;-50
2023/11/18 09:36:00;;;;;;;3.63;2.40;;;13.50;59.20;;;;;;5036280;28;20430;-52
2023/11/18 09:38:27;;;;;;;2.30;2.10;;;13.90;58.30;;;;;;5039361;28;20826;-49
2023/11/18 09:40:53;;;;;;;3.97;2.50;;;14.10;57.50;;;;;;5036681;28;20605;-57
2023/11/18 09:43:21;;;;;;;2.67;2.27;;;14.10;57.40;;;;;;5035258;28;20570;-54
2023/11/18 09:45:54;;;;;;;2.70;2.23;;;14.20;57.40;;;;;;5040880;28;20482;-51
2023/11/18 09:48:25;;;;;;;2.97;2.47;;;14.50;56.60;;;;;;5040991;28;20443;-50
2023/11/18 09:50:51;;;;;;;2.70;2.50;;;14.60;55.50;;;;;;5045515;28;20439;-49
2023/11/18 09:53:25;;;;;;;2.00;1.90;;;14.70;55.10;;;;;;5041998;28;20451;-51
2023/11/18 09:56:09;;;;;;;1.80;1.70;;;14.30;55.20;;;;;;5032203;28;20412;-52
2023/11/18 09:58:48;;;;;;;2.00;1.80;;;14.10;56.10;;;;;;5036265;28;20554;-52
2023/11/18 10:01:18;;;;;;;2.10;2.00;;;14.20;55.80;;;;;;5040167;28;20494;-49
2023/11/18 10:03:45;;;;;;;2.90;1.70;;;14.30;56.10;;;;;;5044710;28;20481;-50
2023/11/18 10:06:14;;;;;;;2.90;1.83;;;14.30;56.80;;;;;;5040910;28;20442;-52
2023/11/18 10:08:40;;;;;;;2.40;1.93;;;14.30;55.80;;;;;;5035407;28;20463;-56
2023/11/18 10:11:09;;;;;;;2.23;1.60;;;14.30;55.50;;;;;;5040030;28;20455;-49
2023/11/18 10:13:40;;;;;;;2.40;2.00;;;14.30;55.40;;;;;;5044188;28;20439;-49
2023/11/18 10:16:07;;;;;;;2.90;2.20;;;14.10;56.40;;;;;;5043637;28;20501;-53
2023/11/18 10:18:36;;;;;;;2.83;2.37;;;14.30;56.30;;;;;;5038146;28;20455;-51
2023/11/18 10:21:04;;;;;;;3.60;2.30;;;14.20;56.00;;;;;;5038987;28;20479;-51
2023/11/18 10:23:33;;;;;;;2.47;2.27;;;14.00;56.00;;;;;;5042694;28;20462;-51
2023/11/18 10:26:01;;;;;;;2.57;2.37;;;14.00;56.30;;;;;;5039939;28;21091;-53
2023/11/18 10:28:28;;;;;;;2.40;2.20;;;13.90;56.30;;;;;;5035428;28;20452;-49
2023/11/18 10:30:58;;;;;;;3.40;2.20;;;13.90;57.10;;;;;;5032562;28;20427;-53
2023/11/18 10:33:30;;;;;;;2.33;2.00;;;14.20;57.10;;;;;;5045767;28;20482;-52
2023/11/18 10:35:56;;;;;;;3.37;1.93;;;14.10;56.30;;;;;;5034309;28;20443;-50
2023/11/18 10:38:26;;;;;;;1.63;1.53;;;14.30;56.30;;;;;;5042123;28;20452;-50
2023/11/18 10:40:56;;;;;;;4.67;2.20;;;14.50;55.60;;;;;;5038070;28;21058;-52
2023/11/18 10:43:25;;;;;;;2.10;1.73;;;14.50;54.90;;;;;;5040397;28;20450;-53
2023/11/18 10:46:12;;;;;;;1.57;1.47;;;14.30;54.50;;;;;;5043253;28;20852;-50
2023/11/18 10:48:42;;;;;;;1.70;1.60;;;14.50;55.00;;;;;;5039749;28;20564;-51
2023/11/18 10:51:12;;;;;;;2.47;1.93;;;14.50;53.90;;;;;;5040232;28;20895;-52
2023/11/18 10:53:53;;;;;;;2.03;1.60;;;14.20;55.00;;;;;;5044987;28;20860;-50
2023/11/18 10:56:24;;;;;;;2.43;1.33;;;14.30;54.70;;;;;;5044465;28;20434;-50
2023/11/18 10:58:50;;;;;;;1.90;1.63;;;14.00;54.60;;;;;;5043834;28;20550;-53
2023/11/18 11:01:27;;;;;;;3.10;1.60;;;14.00;55.30;;;;;;5039144;28;20471;-54
2023/11/18 11:03:56;;;;;;;3.40;2.27;;;14.00;55.10;;;;;;5039761;28;20442;-52
2023/11/18 11:06:30;;;;;;;3.10;2.17;;;14.20;54.20;;;;;;5045342;28;20447;-52
2023/11/18 11:08:58;;;;;;;2.23;1.80;;;14.50;54.70;;;;;;5041102;28;20454;-53
2023/11/18 11:11:26;;;;;;;3.10;1.27;;;14.70;54.70;;;;;;5041125;28;20453;-52
2023/11/18 11:13:58;;;;;;;2.40;1.53;;;14.80;54.10;;;;;;5044400;28;20434;-49
2023/11/18 11:16:34;;;;;;;1.60;1.50;;;15.00;53.50;;;;;;5040609;28;20463;-49
2023/11/18 11:19:08;;;;;;;1.90;1.63;;;15.10;53.10;;;;;;5048649;28;20470;-53
2023/11/18 11:21:47;;;;;;;2.90;1.50;;;15.30;53.50;;;;;;5043384;28;20506;-53
2023/11/18 11:24:33;;;;;;;1.90;1.67;;;15.30;52.90;;;;;;5040451;28;20542;-51
2023/11/18 11:27:08;;;;;;;3.10;1.90;;;14.60;52.70;;;;;;5046465;28;20581;-52
2023/11/18 11:29:46;;;;;;;1.80;1.70;;;14.00;54.80;;;;;;5046127;28;20540;-50
2023/11/18 11:32:31;;;;;;;2.63;1.70;;;14.30;55.40;;;;;;5045314;28;20503;-50
2023/11/18 11:35:07;;;;;;;3.40;1.40;;;14.60;55.30;;;;;;5044634;28;20442;-50
2023/11/18 11:37:36;;;;;;;2.00;1.37;;;14.90;54.30;;;;;;5043722;28;21973;-54
2023/11/18 11:40:08;;;;;;;3.00;1.60;;;15.00;53.30;;;;;;5043605;28;20482;-50
2023/11/18 11:42:34;;;;;;;2.23;1.90;;;14.90;52.80;;;;;;5037930;28;20439;-51
2023/11/18 11:45:01;;;;;;;2.70;1.40;;;14.90;52.90;;;;;;5045572;28;20531;-53
2023/11/18 11:47:35;;;;;;;1.50;1.40;;;14.50;53.10;;;;;;5039476;28;20271;-50
2023/11/18 11:50:21;;;;;;;1.60;1.50;;;14.50;54.10;;;;;;5046324;28;20468;-52
2023/11/18 11:52:53;;;;;;;2.13;1.80;;;14.80;53.90;;;;;;5041627;28;20859;-49
2023/11/18 11:55:44;;;;;;;2.83;1.80;;;14.70;53.70;;;;;;5048123;28;20542;-49
2023/11/18 11:58:31;;;;;;;2.50;2.30;;;14.90;53.90;;;;;;5036927;28;20451;-49
2023/11/18 12:01:07;;;;;;;2.00;1.80;;;14.70;54.00;;;;;;5045026;28;20478;-54
2023/11/18 12:03:38;;;;;;;2.23;2.03;;;14.80;53.90;;;;;;5044094;28;20478;-50
2023/11/18 12:06:07;;;;;;;2.23;2.03;;;14.90;53.10;;;;;;5036442;28;21000;-51
2023/11/18 12:08:36;;;;;;;2.73;2.10;;;14.70;53.10;;;;;;5040451;28;20527;-50
2023/11/18 12:11:02;;;;;;;2.53;2.30;;;14.20;54.20;;;;;;5044004;28;20427;-52
2023/11/18 12:13:31;;;;;;;2.37;2.17;;;14.20;55.10;;;;;;5045412;28;20427;-50
2023/11/18 12:15:57;;;;;;;2.03;1.83;;;14.40;55.20;;;;;;5040518;28;20446;-51
2023/11/18 12:18:24;;;;;;;2.70;1.87;;;14.50;54.10;;;;;;5046605;28;20423;-52
2023/11/18 12:21:01;;;;;;;2.03;1.83;;;14.60;54.20;;;;;;5040437;28;20484;-51
2023/11/18 12:23:27;;;;;;;1.80;1.50;;;14.70;54.00;;;;;;5040568;28;20463;-49
2023/11/18 12:25:54;;;;;;;5.00;1.80;;;14.70;53.90;;;;;;5044687;28;20467;-50
2023/11/18 12:28:35;;;;;;;2.60;1.80;;;14.70;53.80;;;;;;5043528;28;20730;-51
2023/11/18 12:31:16;;;;;;;3.47;1.77;;;14.70;53.60;;;;;;5043021;28;21083;-55
2023/11/18 12:33:54;;;;;;;4.50;1.90;;;14.60;52.80;;;;;;5040945;28;20903;-50
2023/11/18 12:36:38;;;;;;;3.00;2.20;;;14.50;53.40;;;;;;5048472;28;20443;-52
2023/11/18 12:39:40;;;;;;;2.50;2.20;;;14.50;53.80;;;;;;5043667;28;20447;-50
2023/11/18 12:42:11;;;;;;;2.70;1.60;;;14.20;53.40;;;;;;5044981;28;20586;-49
2023/11/18 12:44:51;;;;;;;2.00;1.60;;;14.30;53.70;;;;;;5044500;28;20465;-51
2023/11/18 12:47:21;;;;;;;4.23;3.30;;;14.40;53.30;;;;;;5040508;28;20518;-49
2023/11/18 12:49:54;;;;;;;2.93;2.17;;;14.10;53.60;;;;;;5047580;28;20446;-49
2023/11/18 12:52:21;;;;;;;2.80;2.50;;;14.00;54.60;;;;;;5042784;28;20461;-49
2023/11/18 12:54:50;;;;;;;4.30;1.97;;;13.70;55.30;;;;;;5042992;28;20966;-53